createdAt,value
2018-10-06T00:01:05.189Z,67.60
2018-10-06T00:03:33.639Z,66.46
2018-10-06T00:06:02.056Z,66.50
2018-10-06T00:08:30.460Z,66.86
2018-10-06T00:10:58.839Z,66.50
2018-10-06T00:13:27.213Z,66.70
2018-10-06T00:15:55.633Z,66.12
2018-10-06T00:18:23.984Z,67.20
2018-10-06T00:20:52.360Z,67.05
2018-10-06T00:23:20.737Z,67.83
2018-10-06T00:25:49.085Z,67.13
2018-10-06T00:28:17.427Z,67.03
2018-10-06T00:30:45.930Z,66.75
2018-10-06T00:33:14.291Z,66.87
2018-10-06T00:35:42.636Z,67.44
2018-10-06T00:38:10.982Z,66.71
2018-10-06T00:40:39.353Z,67.43
2018-10-06T00:43:07.703Z,68.05
2018-10-06T00:45:36.049Z,66.84
2018-10-06T00:48:04.426Z,67.49
2018-10-06T00:50:32.813Z,67.33
2018-10-06T00:53:01.184Z,67.24
2018-10-06T00:55:29.837Z,67.07
2018-10-06T00:57:58.314Z,67.36
2018-10-06T01:00:26.713Z,67.83
2018-10-06T01:02:55.056Z,67.94
2018-10-06T01:05:23.423Z,67.80
2018-10-06T01:07:51.753Z,67.33
2018-10-06T01:10:20.107Z,68.76
2018-10-06T01:12:48.488Z,69.09
2018-10-06T01:15:16.880Z,67.73
2018-10-06T01:17:45.651Z,69.32
2018-10-06T01:20:14.004Z,69.19
2018-10-06T01:22:42.344Z,68.34
2018-10-06T01:25:10.698Z,69.00
2018-10-06T01:27:39.068Z,68.27
2018-10-06T01:30:07.494Z,68.17
2018-10-06T01:32:35.832Z,69.89
2018-10-06T01:35:04.255Z,68.63
2018-10-06T01:37:32.623Z,69.26
2018-10-06T01:40:00.971Z,68.80
2018-10-06T01:42:29.328Z,68.23
2018-10-06T01:44:57.727Z,68.53
2018-10-06T01:47:26.084Z,68.20
2018-10-06T01:49:54.565Z,68.62
2018-10-06T01:52:22.855Z,69.41
2018-10-06T01:54:51.209Z,69.01
2018-10-06T01:57:19.547Z,69.82
2018-10-06T01:59:47.902Z,68.95
2018-10-06T02:02:16.249Z,68.84
2018-10-06T02:04:44.581Z,69.33
2018-10-06T02:07:12.896Z,68.55
2018-10-06T02:09:41.208Z,69.21
2018-10-06T02:12:09.526Z,69.09
2018-10-06T02:14:37.836Z,69.36
2018-10-06T02:17:06.346Z,70.23
2018-10-06T02:19:34.657Z,69.42
2018-10-06T02:22:02.957Z,70.60
2018-10-06T02:24:31.279Z,69.96
2018-10-06T02:26:59.589Z,69.76
2018-10-06T02:29:27.886Z,70.23
2018-10-06T02:31:56.194Z,70.75
2018-10-06T02:34:24.604Z,69.91
2018-10-06T02:36:52.988Z,70.28
2018-10-06T02:39:21.264Z,72.10
2018-10-06T02:41:49.625Z,72.79
2018-10-06T02:44:18.408Z,69.93
2018-10-06T02:46:46.724Z,70.42
2018-10-06T02:49:15.025Z,70.22
2018-10-06T02:51:43.330Z,70.77
2018-10-06T02:54:11.651Z,70.76
2018-10-06T02:56:39.965Z,71.64
2018-10-06T02:59:08.400Z,71.50
2018-10-06T03:01:36.725Z,72.59
2018-10-06T03:04:05.056Z,72.05
2018-10-06T03:06:33.358Z,71.13
2018-10-06T03:09:01.660Z,71.29
2018-10-06T03:11:29.987Z,71.30
2018-10-06T03:13:58.309Z,71.09
2018-10-06T03:16:26.688Z,71.46
2018-10-06T03:18:55.164Z,71.80
2018-10-06T03:21:23.627Z,73.11
2018-10-06T03:23:51.933Z,72.35
2018-10-06T03:26:20.235Z,71.47
2018-10-06T03:28:48.556Z,73.57
2018-10-06T03:31:17.150Z,71.83
2018-10-06T03:33:45.636Z,72.36
2018-10-06T03:36:13.941Z,71.27
2018-10-06T03:38:42.309Z,71.73
2018-10-06T03:41:10.628Z,71.59
2018-10-06T03:43:38.960Z,71.60
2018-10-06T03:46:07.389Z,72.34
2018-10-06T03:48:35.716Z,72.57
2018-10-06T03:51:04.039Z,72.50
2018-10-06T03:53:32.404Z,72.74
2018-10-06T03:56:00.713Z,73.49
2018-10-06T03:58:29.072Z,72.26
2018-10-06T04:00:57.377Z,73.65
2018-10-06T04:03:25.696Z,73.96
2018-10-06T04:05:53.998Z,72.34
2018-10-06T04:08:22.310Z,73.14
2018-10-06T04:10:50.648Z,74.69
2018-10-06T04:13:18.970Z,73.29
2018-10-06T04:15:47.280Z,72.67
2018-10-06T04:18:15.594Z,73.59
2018-10-06T04:20:43.900Z,73.48
2018-10-06T04:23:12.217Z,73.19
2018-10-06T04:25:40.516Z,73.70
2018-10-06T04:28:08.876Z,73.47
2018-10-06T04:30:37.214Z,73.34
2018-10-06T04:33:05.653Z,74.61
2018-10-06T04:35:33.976Z,73.65
2018-10-06T04:38:02.276Z,74.67
2018-10-06T04:40:30.595Z,74.08
2018-10-06T04:42:58.907Z,73.81
2018-10-06T04:45:27.216Z,75.41
2018-10-06T04:47:55.530Z,74.95
2018-10-06T04:50:23.851Z,74.32
2018-10-06T04:52:52.172Z,74.45
2018-10-06T04:55:20.499Z,73.58
2018-10-06T04:57:48.799Z,74.14
2018-10-06T05:00:17.108Z,74.70
2018-10-06T05:02:45.415Z,73.27
2018-10-06T05:05:13.736Z,73.93
2018-10-06T05:07:42.071Z,73.90
2018-10-06T05:10:10.383Z,73.81
2018-10-06T05:12:38.700Z,73.75
2018-10-06T05:15:07.048Z,73.83
2018-10-06T05:17:35.365Z,73.57
2018-10-06T05:20:03.772Z,74.35
2018-10-06T05:22:32.085Z,73.99
2018-10-06T05:25:00.395Z,74.91
2018-10-06T05:27:28.709Z,74.20
2018-10-06T05:29:57.019Z,74.31
2018-10-06T05:32:25.335Z,74.19
2018-10-06T05:34:53.673Z,74.40
2018-10-06T05:37:22.015Z,74.58
2018-10-06T05:39:50.915Z,75.05
2018-10-06T05:42:19.236Z,74.44
2018-10-06T05:44:47.569Z,75.21
2018-10-06T05:47:15.888Z,74.83
2018-10-06T05:49:44.207Z,75.15
2018-10-06T05:52:12.538Z,74.94
2018-10-06T05:54:40.830Z,74.38
2018-10-06T05:57:09.384Z,75.09
2018-10-06T05:59:37.684Z,75.54
2018-10-06T06:02:05.988Z,75.47
2018-10-06T06:04:34.321Z,74.73
2018-10-06T06:07:02.643Z,74.34
2018-10-06T06:09:30.975Z,74.66
2018-10-06T06:11:59.331Z,74.80
2018-10-06T06:14:27.656Z,74.82
2018-10-06T06:16:55.986Z,75.49
2018-10-06T06:19:24.292Z,75.39
2018-10-06T06:21:52.608Z,74.62
2018-10-06T06:24:20.914Z,74.91
2018-10-06T06:26:49.220Z,74.22
2018-10-06T06:29:17.526Z,74.58
2018-10-06T06:31:45.852Z,74.53
2018-10-06T06:34:14.155Z,74.08
2018-10-06T06:36:42.463Z,73.99
2018-10-06T06:39:10.923Z,73.95
2018-10-06T06:41:39.600Z,73.75
2018-10-06T06:44:08.353Z,73.60
2018-10-06T06:46:36.868Z,74.09
2018-10-06T06:49:05.648Z,73.47
2018-10-06T06:51:34.134Z,73.19
2018-10-06T06:54:02.446Z,73.26
2018-10-06T06:56:30.767Z,73.38
2018-10-06T06:58:59.072Z,73.17
2018-10-06T07:01:27.392Z,73.15
2018-10-06T07:03:55.705Z,72.97
2018-10-06T07:06:24.015Z,72.80
2018-10-06T07:08:52.363Z,72.39
2018-10-06T07:11:20.687Z,72.42
2018-10-06T07:13:49.014Z,72.59
2018-10-06T07:16:18.218Z,72.33
2018-10-06T07:18:46.524Z,71.55
2018-10-06T07:21:14.836Z,72.03
2018-10-06T07:23:43.146Z,71.65
2018-10-06T07:26:11.462Z,70.83
2018-10-06T07:28:39.819Z,70.86
2018-10-06T07:31:08.129Z,71.13
2018-10-06T07:33:36.462Z,70.23
2018-10-06T07:36:04.771Z,69.08
2018-10-06T07:38:33.071Z,68.11
2018-10-06T07:41:01.379Z,68.98
2018-10-06T07:43:29.686Z,66.61
2018-10-06T07:45:58.012Z,67.76
2018-10-06T07:48:26.325Z,63.95
2018-10-06T07:50:55.249Z,65.02
2018-10-06T07:53:23.580Z,65.94
2018-10-06T07:55:51.891Z,64.34
2018-10-06T07:58:20.922Z,64.28
2018-10-06T08:00:49.351Z,63.67
2018-10-06T08:03:17.816Z,62.55
2018-10-06T08:05:46.136Z,61.66
2018-10-06T08:08:14.452Z,58.47
2018-10-06T08:10:42.768Z,62.32
2018-10-06T08:13:11.076Z,60.37
2018-10-06T08:15:39.382Z,60.33
2018-10-06T08:18:07.694Z,57.61
2018-10-06T08:20:36.000Z,56.23
2018-10-06T08:23:04.323Z,59.54
2018-10-06T08:25:32.626Z,56.31
2018-10-06T08:28:00.992Z,57.63
2018-10-06T08:30:29.357Z,57.82
2018-10-06T08:32:57.714Z,57.85
2018-10-06T08:35:26.048Z,54.77
2018-10-06T08:37:54.449Z,55.90
2018-10-06T08:40:22.796Z,55.81
2018-10-06T08:42:52.331Z,56.46
2018-10-06T08:45:20.716Z,55.64
2018-10-06T08:47:49.096Z,55.94
2018-10-06T08:50:17.423Z,54.38
2018-10-06T08:52:45.830Z,54.60
2018-10-06T08:55:14.186Z,53.33
2018-10-06T08:57:42.535Z,52.57
2018-10-06T09:00:10.916Z,52.25
2018-10-06T09:02:39.276Z,54.83
2018-10-06T09:05:07.702Z,54.05
2018-10-06T09:07:36.057Z,53.58
2018-10-06T09:10:04.472Z,53.00
2018-10-06T09:12:32.832Z,53.66
2018-10-06T09:15:01.260Z,51.80
2018-10-06T09:17:29.801Z,51.86
2018-10-06T09:19:58.172Z,51.06
2018-10-06T09:22:26.584Z,51.72
2018-10-06T09:24:54.919Z,52.12
2018-10-06T09:27:23.296Z,48.33
2018-10-06T09:29:51.682Z,49.12
2018-10-06T09:32:20.065Z,47.90
2018-10-06T09:34:48.510Z,50.80
2018-10-06T09:37:17.704Z,50.96
2018-10-06T09:39:46.089Z,51.14
2018-10-06T09:42:14.869Z,50.88
2018-10-06T09:44:43.057Z,51.12
2018-10-06T09:47:11.414Z,48.70
2018-10-06T09:49:39.767Z,49.23
2018-10-06T09:52:08.189Z,49.60
2018-10-06T09:54:36.581Z,49.67
2018-10-06T09:57:04.976Z,48.32
2018-10-06T09:59:34.355Z,49.77
2018-10-06T10:02:09.197Z,50.04
2018-10-06T10:04:37.976Z,48.31
2018-10-06T10:07:06.357Z,47.41
2018-10-06T10:09:34.748Z,47.06
2018-10-06T10:12:03.100Z,45.79
2018-10-06T10:14:31.455Z,47.80
2018-10-06T10:16:59.878Z,45.38
2018-10-06T10:19:28.192Z,45.96
2018-10-06T10:21:56.585Z,44.37
2018-10-06T10:24:24.928Z,43.40
2018-10-06T10:26:53.339Z,43.67
2018-10-06T10:29:21.692Z,41.09
2018-10-06T10:31:51.035Z,39.29
2018-10-06T10:34:19.454Z,40.84
2018-10-06T10:36:47.815Z,39.95
2018-10-06T10:39:16.744Z,39.93
2018-10-06T10:41:45.053Z,40.63
2018-10-06T10:44:14.108Z,41.24
2018-10-06T10:46:42.458Z,41.15
2018-10-06T10:49:10.830Z,41.31
2018-10-06T10:51:39.180Z,41.55
2018-10-06T10:54:07.596Z,41.82
2018-10-06T10:56:35.996Z,41.53
2018-10-06T10:59:04.584Z,41.95
2018-10-06T11:01:32.949Z,42.49
2018-10-06T11:04:01.344Z,42.90
2018-10-06T11:06:29.719Z,42.91
2018-10-06T11:08:58.075Z,43.80
2018-10-06T11:11:26.550Z,43.62
2018-10-06T11:13:55.009Z,44.42
2018-10-06T11:16:23.509Z,44.36
2018-10-06T11:18:52.018Z,44.68
2018-10-06T11:21:20.388Z,44.91
2018-10-06T11:23:48.769Z,45.77
2018-10-06T11:26:17.144Z,44.72
2018-10-06T11:28:45.837Z,46.07
2018-10-06T11:31:14.256Z,46.42
2018-10-06T11:33:42.663Z,46.11
2018-10-06T11:36:11.052Z,47.17
2018-10-06T11:38:39.521Z,47.19
2018-10-06T11:41:07.880Z,47.18
2018-10-06T11:43:36.261Z,46.51
2018-10-06T11:46:04.660Z,47.50
2018-10-06T11:48:33.043Z,47.35
2018-10-06T11:51:01.522Z,47.94
2018-10-06T11:53:30.511Z,48.52
2018-10-06T11:55:58.856Z,47.61
2018-10-06T11:58:27.225Z,48.31
2018-10-06T12:00:55.650Z,47.92
2018-10-06T12:03:24.303Z,48.59
2018-10-06T12:05:52.862Z,48.99
2018-10-06T12:08:21.707Z,48.10
2018-10-06T12:10:50.057Z,48.90
2018-10-06T12:13:19.608Z,48.54
2018-10-06T12:15:48.000Z,49.41
2018-10-06T12:18:16.355Z,48.90
2018-10-06T12:20:44.728Z,48.48
2018-10-06T12:23:13.084Z,49.07
2018-10-06T12:25:41.452Z,49.17
2018-10-06T12:28:09.807Z,49.62
2018-10-06T12:30:38.229Z,49.30
2018-10-06T12:33:06.665Z,49.34
2018-10-06T12:35:35.062Z,49.89
2018-10-06T12:38:03.486Z,49.06
2018-10-06T12:40:32.247Z,49.18
2018-10-06T12:43:00.613Z,49.34
2018-10-06T12:45:29.002Z,49.55
2018-10-06T12:47:57.428Z,49.25
2018-10-06T12:50:25.813Z,48.75
2018-10-06T12:52:54.158Z,49.76
2018-10-06T12:55:22.554Z,49.36
2018-10-06T12:57:51.108Z,49.28
2018-10-06T13:00:19.622Z,49.26
2018-10-06T13:02:48.005Z,48.99
2018-10-06T13:05:16.483Z,49.09
2018-10-06T13:07:44.850Z,49.14
2018-10-06T13:10:13.253Z,48.87
2018-10-06T13:12:41.645Z,49.66
2018-10-06T13:15:10.037Z,48.77
2018-10-06T13:17:38.430Z,49.74
2018-10-06T13:20:06.821Z,49.52
2018-10-06T13:22:35.184Z,49.28
2018-10-06T13:25:03.552Z,49.59
2018-10-06T13:27:31.918Z,49.53
2018-10-06T13:30:00.304Z,49.65
2018-10-06T13:32:28.679Z,49.27
2018-10-06T13:34:57.054Z,49.00
2018-10-06T13:37:25.428Z,48.48
2018-10-06T13:39:54.338Z,48.50
2018-10-06T13:42:22.841Z,49.18
2018-10-06T13:44:51.230Z,48.46
2018-10-06T13:47:19.591Z,48.92
2018-10-06T13:49:48.002Z,49.15
2018-10-06T13:52:16.354Z,48.55
2018-10-06T13:54:44.681Z,48.83
2018-10-06T13:57:13.054Z,48.47
2018-10-06T13:59:41.414Z,48.85
2018-10-06T14:02:09.833Z,48.90
2018-10-06T14:04:38.195Z,49.01
2018-10-06T14:07:06.649Z,48.54
2018-10-06T14:09:35.096Z,49.01
2018-10-06T14:12:03.463Z,49.32
2018-10-06T14:14:31.857Z,49.07
2018-10-06T14:17:00.268Z,48.95
2018-10-06T14:19:28.622Z,49.13
2018-10-06T14:21:57.087Z,49.80
2018-10-06T14:24:25.444Z,49.25
2018-10-06T14:26:53.848Z,49.43
2018-10-06T14:29:22.302Z,49.32
2018-10-06T14:31:50.715Z,50.54
2018-10-06T14:34:19.727Z,49.86
2018-10-06T14:36:48.079Z,50.48
2018-10-06T14:39:16.445Z,50.48
2018-10-06T14:41:44.828Z,50.47
2018-10-06T14:44:13.235Z,50.52
2018-10-06T14:46:41.577Z,50.03
2018-10-06T14:49:10.389Z,50.86
2018-10-06T14:51:38.758Z,50.43
2018-10-06T14:54:07.171Z,51.19
2018-10-06T14:56:36.101Z,50.49
2018-10-06T14:59:04.509Z,50.68
2018-10-06T15:01:32.914Z,50.49
2018-10-06T15:04:01.313Z,50.92
2018-10-06T15:06:30.281Z,51.27
2018-10-06T15:08:58.770Z,51.79
2018-10-06T15:11:27.243Z,52.55
2018-10-06T15:13:58.088Z,52.00
2018-10-06T15:16:26.454Z,51.87
2018-10-06T15:18:54.791Z,52.11
2018-10-06T15:21:23.281Z,52.67
2018-10-06T15:23:51.617Z,52.81
2018-10-06T15:26:20.483Z,52.71
2018-10-06T15:28:49.044Z,52.91
2018-10-06T15:31:17.415Z,53.73
2018-10-06T15:33:45.785Z,54.58
2018-10-06T15:36:14.717Z,54.94
2018-10-06T15:38:43.343Z,54.14
2018-10-06T15:41:11.719Z,54.70
2018-10-06T15:43:40.076Z,54.89
2018-10-06T15:46:08.485Z,56.21
2018-10-06T15:48:36.889Z,55.27
2018-10-06T15:51:05.288Z,55.45
2018-10-06T15:53:33.754Z,56.53
2018-10-06T15:56:02.133Z,57.21
2018-10-06T15:58:30.466Z,56.60
2018-10-06T16:00:58.876Z,57.14
2018-10-06T16:03:27.224Z,57.04
2018-10-06T16:05:55.682Z,56.86
2018-10-06T16:08:24.140Z,57.43
2018-10-06T16:10:52.504Z,57.06
2018-10-06T16:13:22.362Z,57.44
2018-10-06T16:15:51.305Z,57.73
2018-10-06T16:25:19.573Z,58.56
2018-10-06T16:27:47.935Z,58.69
2018-10-06T16:30:16.696Z,58.78
2018-10-06T16:32:45.201Z,58.95
2018-10-06T16:35:13.754Z,59.93
2018-10-06T16:37:42.148Z,59.87
2018-10-06T16:40:10.548Z,60.83
2018-10-06T16:42:39.893Z,60.29
2018-10-06T16:45:08.230Z,60.28
2018-10-06T16:47:36.647Z,61.05
2018-10-06T16:50:05.024Z,61.00
2018-10-06T16:52:33.393Z,60.82
2018-10-06T16:55:01.742Z,60.77
2018-10-06T16:57:30.094Z,60.77
2018-10-06T16:59:59.088Z,60.91
2018-10-06T17:02:27.428Z,60.36
2018-10-06T17:04:55.899Z,60.89
2018-10-06T17:07:24.291Z,61.35
2018-10-06T17:09:53.078Z,61.44
2018-10-06T17:12:21.620Z,62.42
2018-10-06T17:14:50.321Z,61.59
2018-10-06T17:17:18.665Z,62.32
2018-10-06T17:19:47.016Z,62.85
2018-10-06T17:22:15.357Z,62.19
2018-10-06T17:24:43.743Z,62.62
2018-10-06T17:27:12.127Z,62.66
2018-10-06T17:29:40.596Z,63.33
2018-10-06T17:32:08.989Z,62.90
2018-10-06T17:34:37.421Z,63.24
2018-10-06T17:37:06.380Z,63.81
2018-10-06T17:39:34.772Z,63.58
2018-10-06T17:42:03.140Z,63.76
2018-10-06T17:44:31.557Z,63.55
2018-10-06T17:46:59.920Z,63.87
2018-10-06T17:49:28.311Z,63.89
2018-10-06T17:51:56.673Z,64.50
2018-10-06T17:54:25.132Z,63.82
2018-10-06T17:56:53.516Z,63.59
2018-10-06T17:59:21.944Z,64.16
2018-10-06T18:01:50.515Z,64.22
2018-10-06T18:04:18.859Z,63.48
2018-10-06T18:06:47.200Z,63.56
2018-10-06T18:09:15.581Z,64.14
2018-10-06T18:11:43.910Z,63.25
2018-10-06T18:14:12.281Z,63.64
2018-10-06T18:16:40.613Z,63.19
2018-10-06T18:19:08.953Z,63.72
2018-10-06T18:21:37.467Z,63.34
2018-10-06T18:24:05.880Z,64.31
2018-10-06T18:26:34.244Z,63.26
2018-10-06T18:29:02.683Z,63.69
2018-10-06T18:31:31.491Z,62.86
2018-10-06T18:33:59.944Z,63.36
2018-10-06T18:36:28.481Z,62.91
2018-10-06T18:38:56.662Z,62.92
2018-10-06T18:41:25.028Z,63.29
2018-10-06T18:43:53.428Z,63.29
2018-10-06T18:46:21.776Z,62.99
2018-10-06T18:48:50.156Z,63.03
2018-10-06T18:51:18.719Z,63.22
2018-10-06T18:53:47.065Z,63.75
2018-10-06T18:56:15.520Z,63.41
2018-10-06T18:58:43.949Z,63.12
2018-10-06T19:01:12.308Z,63.33
2018-10-06T19:03:40.827Z,63.81
2018-10-06T19:06:09.387Z,63.39
2018-10-06T19:08:38.301Z,63.64
2018-10-06T19:11:06.689Z,63.74
2018-10-06T19:13:35.053Z,64.29
2018-10-06T19:16:03.417Z,63.30
2018-10-06T19:18:32.011Z,64.03
2018-10-06T19:21:00.596Z,63.80
2018-10-06T19:23:29.455Z,63.79
2018-10-06T19:25:57.800Z,64.23
2018-10-06T19:28:26.202Z,63.43
2018-10-06T19:30:55.351Z,64.23
2018-10-06T19:33:23.964Z,63.60
2018-10-06T19:35:53.334Z,63.64
2018-10-06T19:38:21.776Z,63.92
2018-10-06T19:40:50.391Z,64.04
2018-10-06T19:43:18.792Z,64.34
2018-10-06T19:45:47.711Z,63.81
2018-10-06T19:48:16.043Z,63.74
2018-10-06T19:50:44.573Z,63.85
2018-10-06T19:53:12.960Z,63.69
2018-10-06T19:55:41.741Z,64.25
2018-10-06T19:58:10.193Z,63.79
2018-10-06T20:00:38.555Z,63.69
2018-10-06T20:03:07.164Z,65.12
2018-10-06T20:05:35.519Z,64.43
2018-10-06T20:08:04.104Z,64.38
2018-10-06T20:10:32.584Z,64.32
2018-10-06T20:13:00.969Z,64.22
2018-10-06T20:15:29.341Z,64.45
2018-10-06T20:17:57.736Z,64.41
2018-10-06T20:20:26.336Z,64.16
2018-10-06T20:22:54.785Z,64.86
2018-10-06T20:25:23.232Z,64.68
2018-10-06T20:27:51.614Z,64.70
2018-10-06T20:30:19.961Z,64.72
2018-10-06T20:32:48.365Z,64.89
2018-10-06T20:35:16.686Z,64.88
2018-10-06T20:37:45.086Z,64.41
2018-10-06T20:40:13.536Z,64.72
2018-10-06T20:42:41.892Z,64.80
2018-10-06T20:45:10.360Z,65.18
2018-10-06T20:47:39.114Z,65.18
2018-10-06T20:50:07.696Z,64.91
2018-10-06T20:52:36.109Z,65.51
2018-10-06T20:55:04.456Z,65.77
2018-10-06T20:57:33.640Z,65.51
2018-10-06T21:00:02.115Z,66.43
2018-10-06T21:02:30.459Z,66.30
2018-10-06T21:04:58.939Z,65.84
2018-10-06T21:07:27.331Z,65.51
2018-10-06T21:09:55.672Z,65.49
2018-10-06T21:12:24.049Z,65.67
2018-10-06T21:14:52.404Z,66.47
2018-10-06T21:17:20.835Z,66.12
2018-10-06T21:19:49.188Z,66.47
2018-10-06T21:22:17.556Z,66.45
2018-10-06T21:24:45.980Z,66.38
2018-10-06T21:27:15.072Z,67.08
2018-10-06T21:29:43.683Z,66.13
2018-10-06T21:32:12.396Z,67.25
2018-10-06T21:34:40.773Z,67.38
2018-10-06T21:37:09.217Z,67.23
2018-10-06T21:39:37.616Z,66.84
2018-10-06T21:42:06.065Z,66.61
2018-10-06T21:44:34.407Z,66.41
2018-10-06T21:47:02.815Z,66.64
2018-10-06T21:49:31.181Z,67.14
2018-10-06T21:51:59.645Z,66.88
2018-10-06T21:54:28.302Z,66.71
2018-10-06T21:56:56.632Z,67.01
2018-10-06T22:01:23.284Z,67.35
2018-10-06T22:03:52.876Z,66.37
2018-10-06T22:06:21.439Z,66.97
2018-10-06T22:08:53.172Z,66.54
2018-10-06T22:11:21.561Z,66.45
2018-10-06T22:13:50.065Z,66.78
2018-10-06T22:16:18.440Z,66.27
2018-10-06T22:18:46.861Z,66.57
2018-10-06T22:21:15.688Z,66.88
2018-10-06T22:23:44.201Z,66.72
2018-10-06T22:26:12.552Z,66.35
2018-10-06T22:28:40.920Z,66.56
2018-10-06T22:31:09.581Z,66.72
2018-10-06T22:33:37.954Z,66.31
2018-10-06T22:36:06.544Z,66.99
2018-10-06T22:38:35.060Z,67.07
2018-10-06T22:41:04.047Z,66.99
2018-10-06T22:43:32.910Z,66.92
2018-10-06T22:46:01.743Z,67.10
2018-10-06T22:48:30.220Z,67.18
2018-10-06T22:50:59.583Z,67.25
2018-10-06T22:53:27.975Z,67.01
2018-10-06T22:55:56.344Z,66.69
2018-10-06T22:58:24.959Z,66.68
2018-10-06T23:00:53.322Z,66.86
2018-10-06T23:03:21.800Z,66.82
2018-10-06T23:05:50.053Z,66.72
2018-10-06T23:08:18.505Z,67.51
2018-10-06T23:10:46.920Z,66.92
2018-10-06T23:13:15.272Z,67.03
2018-10-06T23:15:43.653Z,66.94
2018-10-06T23:18:12.025Z,67.17
2018-10-06T23:20:40.853Z,67.43
2018-10-06T23:23:09.249Z,67.32
2018-10-06T23:25:37.629Z,68.24
2018-10-06T23:28:06.349Z,68.32
2018-10-06T23:30:34.764Z,68.40
2018-10-06T23:33:03.192Z,67.96
2018-10-06T23:35:31.529Z,67.86
2018-10-06T23:37:59.884Z,67.54
2018-10-06T23:40:28.249Z,67.74
2018-10-06T23:42:56.629Z,67.66
2018-10-06T23:45:25.424Z,67.43
2018-10-06T23:47:53.797Z,67.88
2018-10-06T23:50:22.737Z,68.27
2018-10-06T23:52:51.332Z,68.59
2018-10-06T23:55:19.702Z,68.40
2018-10-06T23:57:48.047Z,67.35
